createdAt,value
2023-04-24T00:03:02.204Z,64.14
2023-04-24T00:07:05.710Z,64.42
2023-04-24T00:11:08.941Z,64.49
2023-04-24T00:15:13.053Z,63.62
2023-04-24T00:19:17.643Z,64.38
2023-04-24T00:23:21.195Z,64.28
2023-04-24T00:27:24.364Z,64.63
2023-04-24T00:31:27.738Z,64.46
2023-04-24T00:35:32.110Z,64.91
2023-04-24T00:39:35.537Z,64.74
2023-04-24T00:43:38.969Z,65.17
2023-04-24T00:47:44.536Z,65.06
2023-04-24T00:51:50.696Z,65.26
2023-04-24T00:55:53.974Z,65.54
2023-04-24T00:59:57.045Z,65.32
2023-04-24T01:04:00.953Z,65.65
2023-04-24T01:08:06.214Z,65.33
2023-04-24T01:12:09.624Z,65.92
2023-04-24T01:16:13.893Z,65.58
2023-04-24T01:20:17.114Z,65.77
2023-04-24T01:24:22.525Z,65.42
2023-04-24T01:28:26.287Z,65.97
2023-04-24T01:32:31.411Z,66.67
2023-04-24T01:36:36.204Z,67.25
2023-04-24T01:40:41.074Z,66.55
2023-04-24T01:44:44.581Z,66.93
2023-04-24T01:48:48.504Z,67.14
2023-04-24T01:52:51.796Z,67.01
2023-04-24T01:56:56.733Z,67.22
2023-04-24T02:01:00.073Z,66.99
2023-04-24T02:05:05.938Z,67.50
2023-04-24T02:09:09.540Z,67.62
2023-04-24T02:13:14.644Z,67.96
2023-04-24T02:17:18.202Z,68.23
2023-04-24T02:21:21.659Z,67.41
2023-04-24T02:25:25.529Z,68.62
2023-04-24T02:29:29.745Z,68.90
2023-04-24T02:33:34.425Z,68.68
2023-04-24T02:37:37.380Z,68.40
2023-04-24T02:41:40.996Z,68.77
2023-04-24T02:45:46.067Z,69.38
2023-04-24T02:49:49.254Z,69.70
2023-04-24T02:53:52.910Z,69.24
2023-04-24T02:57:58.506Z,69.03
2023-04-24T03:02:03.095Z,69.21
2023-04-24T03:06:07.291Z,68.78
2023-04-24T03:10:11.277Z,69.19
2023-04-24T03:14:14.626Z,69.14
2023-04-24T03:18:20.324Z,69.00
2023-04-24T03:22:23.977Z,69.09
2023-04-24T03:26:27.212Z,69.40
2023-04-24T03:30:31.170Z,68.92
2023-04-24T03:34:36.594Z,68.81
2023-04-24T03:38:40.179Z,69.23
2023-04-24T03:42:43.870Z,69.52
2023-04-24T03:46:47.863Z,69.54
2023-04-24T03:50:52.693Z,69.39
2023-04-24T03:54:57.276Z,69.26
2023-04-24T03:59:01.142Z,69.25
2023-04-24T04:03:04.638Z,68.76
2023-04-24T04:07:09.735Z,68.90
2023-04-24T04:11:14.949Z,68.54
2023-04-24T04:15:18.151Z,68.08
2023-04-24T04:19:22.161Z,67.87
2023-04-24T04:23:27.243Z,67.82
2023-04-24T04:27:33.589Z,67.69
2023-04-24T04:31:36.719Z,67.38
2023-04-24T04:35:40.590Z,67.34
2023-04-24T04:39:45.479Z,67.38
2023-04-24T04:43:49.272Z,66.93
2023-04-24T04:47:52.720Z,67.03
2023-04-24T04:51:55.926Z,67.01
2023-04-24T04:56:01.224Z,66.66
2023-04-24T05:00:06.204Z,66.41
2023-04-24T05:04:10.584Z,66.64
2023-04-24T05:08:24.023Z,66.55
2023-04-24T05:12:31.784Z,66.98
2023-04-24T05:16:36.646Z,67.04
2023-04-24T05:20:40.521Z,67.16
2023-04-24T05:24:43.455Z,67.25
2023-04-24T05:28:48.076Z,67.33
2023-04-24T05:32:51.627Z,67.73
2023-04-24T05:36:57.545Z,67.79
2023-04-24T05:41:01.148Z,67.96
2023-04-24T05:45:10.716Z,67.22
2023-04-24T05:49:14.224Z,67.37
2023-04-24T05:53:19.347Z,67.75
2023-04-24T05:57:23.145Z,68.17
2023-04-24T06:01:30.775Z,68.00
2023-04-24T06:05:34.935Z,68.46
2023-04-24T06:09:38.588Z,68.56
2023-04-24T06:13:42.154Z,68.94
2023-04-24T06:17:48.936Z,68.88
2023-04-24T06:21:53.434Z,69.13
2023-04-24T06:25:56.698Z,69.24
2023-04-24T06:29:59.915Z,69.31
2023-04-24T06:34:04.967Z,69.53
2023-04-24T06:38:08.971Z,69.57
2023-04-24T06:42:13.154Z,68.83
2023-04-24T06:46:16.538Z,69.30
2023-04-24T06:50:21.508Z,69.66
2023-04-24T06:54:25.106Z,69.83
2023-04-24T06:58:29.492Z,69.89
2023-04-24T07:02:33.437Z,69.92
2023-04-24T07:06:40.618Z,70.51
2023-04-24T07:10:44.325Z,70.31
2023-04-24T07:14:47.947Z,70.03
2023-04-24T07:18:51.303Z,70.17
2023-04-24T07:22:56.242Z,70.05
2023-04-24T07:27:00.321Z,69.83
2023-04-24T07:31:04.804Z,69.92
2023-04-24T07:35:08.830Z,69.60
2023-04-24T07:39:13.592Z,69.58
2023-04-24T07:43:17.086Z,69.85
2023-04-24T07:47:20.649Z,68.92
2023-04-24T07:51:24.217Z,69.35
2023-04-24T07:55:29.025Z,68.78
2023-04-24T07:59:32.203Z,68.57
2023-04-24T08:03:36.023Z,69.04
2023-04-24T08:07:39.232Z,68.38
2023-04-24T08:11:44.150Z,68.82
2023-04-24T08:15:50.332Z,68.01
2023-04-24T08:20:00.763Z,67.91
2023-04-24T08:24:06.539Z,68.02
2023-04-24T08:28:12.420Z,67.71
2023-04-24T08:32:15.508Z,67.68
2023-04-24T08:36:18.866Z,66.64
2023-04-24T08:40:29.275Z,67.16
2023-04-24T08:44:35.521Z,67.37
2023-04-24T08:48:41.114Z,67.29
2023-04-24T08:52:45.109Z,67.35
2023-04-24T08:56:52.484Z,66.94
2023-04-24T09:00:58.944Z,66.58
2023-04-24T09:05:05.427Z,66.85
2023-04-24T09:09:09.300Z,67.43
2023-04-24T09:13:14.680Z,67.24
2023-04-24T09:17:19.436Z,67.01
2023-04-24T09:21:25.220Z,67.42
2023-04-24T09:25:33.767Z,66.69
2023-04-24T09:29:37.063Z,66.88
2023-04-24T09:33:41.906Z,67.16
2023-04-24T09:37:50.135Z,66.50
2023-04-24T09:41:54.767Z,66.31
2023-04-24T09:46:00.302Z,65.83
2023-04-24T09:50:13.006Z,65.79
2023-04-24T09:54:19.096Z,65.69
2023-04-24T09:58:30.130Z,65.35
2023-04-24T10:02:34.284Z,64.93
2023-04-24T10:06:39.646Z,64.47
2023-04-24T10:10:46.291Z,65.29
2023-04-24T10:19:07.029Z,64.42
2023-04-24T10:23:12.163Z,62.14
2023-04-24T10:27:17.753Z,62.35
2023-04-24T10:31:21.693Z,62.41
2023-04-24T10:35:28.858Z,60.61
2023-04-24T10:39:34.885Z,61.42
2023-04-24T10:43:38.291Z,60.26
2023-04-24T10:47:45.184Z,60.69
2023-04-24T10:51:51.884Z,61.93
2023-04-24T10:56:05.447Z,61.13
2023-04-24T11:00:29.321Z,60.95
2023-04-24T11:04:34.108Z,59.27
2023-04-24T11:08:45.959Z,59.08
2023-04-24T11:12:53.334Z,56.66
2023-04-24T11:16:59.546Z,55.91
2023-04-24T11:21:13.725Z,54.09
2023-04-24T11:25:18.008Z,56.01
2023-04-24T11:29:40.317Z,55.63
2023-04-24T11:33:44.548Z,53.33
2023-04-24T11:42:04.959Z,55.28
2023-04-24T11:46:10.249Z,54.11
2023-04-24T11:50:14.932Z,54.40
2023-04-24T11:54:18.554Z,54.71
2023-04-24T11:58:24.299Z,53.93
2023-04-24T12:02:30.966Z,51.98
2023-04-24T12:06:35.252Z,50.87
2023-04-24T12:10:38.557Z,50.78
2023-04-24T12:14:47.181Z,51.20
2023-04-24T12:18:53.817Z,50.48
2023-04-24T12:22:59.182Z,50.68
2023-04-24T12:27:03.284Z,52.67
2023-04-24T12:31:08.922Z,53.78
2023-04-24T12:35:13.955Z,53.56
2023-04-24T12:39:18.738Z,54.24
2023-04-24T12:43:22.753Z,56.03
2023-04-24T12:47:27.500Z,57.04
2023-04-24T12:51:32.114Z,60.37
2023-04-24T12:55:35.841Z,61.93
2023-04-24T12:59:41.144Z,63.11
2023-04-24T13:03:45.006Z,63.26
2023-04-24T13:07:50.191Z,64.08
2023-04-24T13:11:53.874Z,65.19
2023-04-24T13:15:57.727Z,65.50
2023-04-24T13:20:01.384Z,66.47
2023-04-24T13:24:08.931Z,67.35
2023-04-24T13:28:12.061Z,67.17
2023-04-24T13:32:17.828Z,68.21
2023-04-24T13:36:21.146Z,68.14
2023-04-24T13:40:26.418Z,67.93
2023-04-24T13:44:29.523Z,66.80
2023-04-24T13:48:33.063Z,66.85
2023-04-24T13:52:36.316Z,65.55
2023-04-24T13:56:41.841Z,65.60
2023-04-24T14:00:44.816Z,64.11
2023-04-24T14:04:50.073Z,64.10
2023-04-24T14:08:56.473Z,64.48
2023-04-24T14:13:03.860Z,61.22
2023-04-24T14:17:08.030Z,60.35
2023-04-24T14:21:11.831Z,60.49
2023-04-24T14:25:16.387Z,59.70
2023-04-24T14:29:21.199Z,60.72
2023-04-24T14:33:24.564Z,58.74
2023-04-24T14:37:30.554Z,58.83
2023-04-24T14:41:34.845Z,55.94
2023-04-24T14:45:41.856Z,56.98
2023-04-24T14:49:46.266Z,57.85
2023-04-24T14:53:52.157Z,58.39
2023-04-24T14:57:55.570Z,58.07
2023-04-24T15:02:15.044Z,59.33
2023-04-24T15:06:19.030Z,60.05
2023-04-24T15:10:24.693Z,59.00
2023-04-24T15:14:27.740Z,60.01
2023-04-24T15:18:33.082Z,60.30
2023-04-24T15:22:36.605Z,61.61
2023-04-24T15:26:40.837Z,62.49
2023-04-24T15:30:43.981Z,63.61
2023-04-24T15:34:56.863Z,63.70
2023-04-24T15:39:09.616Z,64.54
2023-04-24T15:43:14.188Z,63.45
2023-04-24T15:47:17.452Z,63.94
2023-04-24T15:51:22.880Z,63.16
2023-04-24T15:55:26.653Z,63.30
2023-04-24T15:59:31.403Z,63.51
2023-04-24T16:03:34.945Z,64.22
2023-04-24T16:07:40.632Z,64.77
2023-04-24T16:11:44.464Z,64.48
2023-04-24T16:15:48.431Z,63.89
2023-04-24T16:19:51.913Z,63.80
2023-04-24T16:23:56.770Z,63.32
2023-04-24T16:28:00.149Z,63.22
2023-04-24T16:32:03.681Z,63.30
2023-04-24T16:36:09.535Z,61.74
2023-04-24T16:40:14.503Z,62.16
2023-04-24T16:44:19.875Z,60.56
2023-04-24T16:48:23.000Z,59.64
2023-04-24T16:52:26.481Z,59.82
2023-04-24T16:56:31.221Z,60.64
2023-04-24T17:00:34.520Z,60.85
2023-04-24T17:04:37.845Z,60.65
2023-04-24T17:08:41.294Z,60.85
2023-04-24T17:12:46.655Z,62.05
2023-04-24T17:16:50.029Z,62.67
2023-04-24T17:20:53.668Z,63.02
2023-04-24T17:24:57.296Z,64.06
2023-04-24T17:29:02.556Z,64.79
2023-04-24T17:33:05.829Z,64.74
2023-04-24T17:37:09.726Z,65.17
2023-04-24T17:41:15.085Z,65.16
2023-04-24T17:45:20.415Z,65.08
2023-04-24T17:49:23.505Z,63.45
2023-04-24T17:53:27.117Z,62.96
2023-04-24T17:57:30.090Z,63.94
2023-04-24T18:01:36.975Z,63.89
2023-04-24T18:05:40.785Z,64.62
2023-04-24T18:09:44.148Z,64.51
2023-04-24T18:13:47.414Z,65.33
2023-04-24T18:17:52.746Z,65.00
2023-04-24T18:21:56.249Z,65.39
2023-04-24T18:26:00.132Z,65.44
2023-04-24T18:30:03.903Z,65.35
2023-04-24T18:34:09.297Z,65.25
2023-04-24T18:38:12.405Z,64.97
2023-04-24T18:42:16.114Z,65.08
2023-04-24T18:46:19.393Z,65.02
2023-04-24T18:50:26.048Z,65.01
2023-04-24T18:54:29.170Z,64.76
2023-04-24T18:58:32.860Z,64.42
2023-04-24T19:02:36.743Z,64.32
2023-04-24T19:06:41.831Z,63.96
2023-04-24T19:10:45.157Z,64.11
2023-04-24T19:14:48.640Z,63.86
2023-04-24T19:18:52.057Z,63.71
2023-04-24T19:22:57.234Z,64.15
2023-04-24T19:27:00.643Z,63.68
2023-04-24T19:31:04.133Z,63.58
2023-04-24T19:35:07.630Z,63.60
2023-04-24T19:39:13.634Z,63.55
2023-04-24T19:43:16.608Z,63.77
2023-04-24T19:47:22.347Z,63.16
2023-04-24T19:51:25.930Z,63.49
2023-04-24T19:55:31.934Z,63.61
2023-04-24T19:59:35.141Z,63.59
2023-04-24T20:03:39.051Z,63.50
2023-04-24T20:07:44.186Z,63.69
2023-04-24T20:11:51.494Z,63.99
2023-04-24T20:15:56.183Z,63.93
2023-04-24T20:19:59.764Z,63.77
2023-04-24T20:24:07.010Z,64.42
2023-04-24T20:28:12.488Z,64.29
2023-04-24T20:32:15.650Z,64.56
2023-04-24T20:36:19.918Z,64.60
2023-04-24T20:40:25.154Z,64.66
2023-04-24T20:44:30.099Z,64.80
2023-04-24T20:48:33.616Z,64.45
2023-04-24T20:52:37.028Z,64.00
2023-04-24T20:56:40.136Z,64.23
2023-04-24T21:00:44.762Z,64.36
2023-04-24T21:04:47.971Z,64.39
2023-04-24T21:08:52.238Z,64.33
2023-04-24T21:12:55.349Z,63.96
2023-04-24T21:17:00.450Z,64.11
2023-04-24T21:21:04.127Z,63.79
2023-04-24T21:25:08.589Z,63.79
2023-04-24T21:29:11.830Z,63.08
2023-04-24T21:33:16.481Z,63.28
2023-04-24T21:37:19.930Z,62.90
2023-04-24T21:41:23.845Z,63.09
2023-04-24T21:45:27.212Z,62.92
2023-04-24T21:49:33.081Z,62.53
2023-04-24T21:53:36.510Z,62.35
2023-04-24T21:57:39.893Z,62.22
2023-04-24T22:01:44.757Z,62.48
2023-04-24T22:05:49.933Z,62.51
2023-04-24T22:09:53.110Z,62.29
2023-04-24T22:13:57.328Z,61.60
2023-04-24T22:18:01.755Z,62.13
2023-04-24T22:22:06.476Z,62.51
2023-04-24T22:26:09.782Z,62.44
2023-04-24T22:30:14.270Z,62.44
2023-04-24T22:34:19.761Z,62.50
2023-04-24T22:38:25.723Z,62.04
2023-04-24T22:42:30.109Z,62.55
2023-04-24T22:46:33.507Z,62.09
2023-04-24T22:50:37.046Z,61.96
2023-04-24T22:54:42.153Z,62.20
2023-04-24T22:58:45.462Z,62.36
2023-04-24T23:02:49.474Z,62.26
2023-04-24T23:06:52.495Z,61.98
2023-04-24T23:10:57.522Z,61.95
2023-04-24T23:15:01.555Z,61.62
2023-04-24T23:19:05.114Z,62.06
2023-04-24T23:23:09.483Z,62.19
2023-04-24T23:27:14.218Z,62.10
2023-04-24T23:31:17.154Z,62.42
2023-04-24T23:35:20.747Z,62.49
2023-04-24T23:39:24.100Z,62.61
2023-04-24T23:43:29.861Z,62.74
2023-04-24T23:47:33.575Z,63.08
2023-04-24T23:51:38.792Z,62.83
2023-04-24T23:55:42.068Z,63.15
2023-04-24T23:59:47.552Z,63.67
